Sacramento Mather Airport
KMHR : now visible

Airfield :











YOU CAN JOIN US ON...

 
LOGIN :

Register | Disclaimer

   EN    FR    IT 

 









Legend :    VFR   Marginal VFR   IFR   Intensive IFR   Very Intensive IFR
Visi :
Ceiling :
>= 8 km
>= 3000ft
5 to 8 km
1000 to 3000 ft
1500m to 5 km
500 to 1000 ft
800 to 1500m
200 to 500 ft
< 800m
< 200 ft
Symbols :   Thunderstorms  Fog  Heavy snow  Heavy precipitations  Wind > 20 kt






- Airport Elevation : 99 ft


KMHR - Sacramento Mather

CURRENT METAR :
  • 190755Z AUTO 15005KT 10SM CLR 14/04 A2978 RMK A01

EXPIRED METARs :
  • 190735Z AUTO 14007KT 10SM CLR 15/05 A2977 RMK A01
  • 190715Z AUTO 13005KT 10SM CLR 15/05 A2978 RMK A01
  • 190650Z AUTO 14005KT 10SM CLR 16/05 A2978 RMK A01
  • 190635Z AUTO 13005KT 10SM CLR 17/04 A2977 RMK A01
  • 190615Z AUTO 11005KT 10SM CLR 18/04 A2977 RMK A01
  • 190555Z AUTO 20004KT 10SM CLR 18/04 A2976 RMK A01
  • 190535Z AUTO 22005KT 10SM CLR 19/04 A2976 RMK A01
  • 190515Z AUTO 22007KT 10SM CLR 20/04 A2976 RMK A01
  • 190455Z AUTO 20007KT 10SM CLR 21/05 A2975 RMK A01
  • 190435Z AUTO 21003KT 10SM CLR 22/05 A2975 RMK A01
  • 190415Z AUTO 20005KT 10SM CLR 22/05 A2975 RMK A01
  • 190350Z AUTO 22006KT 10SM CLR 23/05 A2974 RMK A01
  • 190335Z AUTO 22004KT 10SM CLR 24/05 A2974 RMK A01
  • 190315Z AUTO 22007KT 10SM CLR 27/05 A2974 RMK A01

TAF KMHR
Valid from the 19 at 06:00 until the 20 at 06:00 UTC


190524Z 1906/2006 22007KT P6SM SKC
KZOA FIR / North America



MET'MAP, your aeronautical weather chart ! - Copyright ORBIFLY December 2007 - Disclaimer

ORBIFLY MET'MAP TEAM :

Programming & Development : Alexandra Zaïnal
Original concept : Baudouin d'Aumeries
Technical & hardware support : Manuel Goepfert
Assistance : Marc-Olivier Méhu




SOURCES & CREDITS :

   NOAA       Earth
Advisory